<?xml version="1.0" encoding="UTF-8" standalone="no" ?>
<gpx xmlns="http://www.topografix.com/GPX/1/1" xmlns:xsi="http://www.w3.org/2001/XMLSchema-instance" xsi:schemaLocation="http://www.topografix.com/GPX/1/1 http://www.topografix.com/GPX/1/1/gpx.xsd" version="1.1" creator="VisuGPX - https://www.visugpx.com">
  <metadata>
    <name>Methamis, le sommet de Gachole</name>
    <desc><![CDATA[Balade autour de Méthamis par le sommet de Gachole.]]></desc>
  </metadata>
  <trk>
    <name><![CDATA[Méthamis - Le sommet de Gacholle]]></name>
    <trkseg>
      <trkpt lat="44.01391" lon="5.22341">
        <ele>315</ele>
        <time>2016-11-01T07:31:17+01:00</time>
      </trkpt>
      <trkpt lat="44.01394" lon="5.22316">
        <ele>314</ele>
        <time>2016-11-01T07:31:22+01:00</time>
      </trkpt>
      <trkpt lat="44.01394" lon="5.22274">
        <ele>312</ele>
        <time>2016-11-01T07:31:27+01:00</time>
      </trkpt>
      <trkpt lat="44.01353" lon="5.22204">
        <ele>307</ele>
        <time>2016-11-01T07:31:32+01:00</time>
      </trkpt>
      <trkpt lat="44.01325" lon="5.22148">
        <ele>303</ele>
        <time>2016-11-01T07:31:37+01:00</time>
      </trkpt>
      <trkpt lat="44.01318" lon="5.22056">
        <ele>295</ele>
        <time>2016-11-01T07:31:42+01:00</time>
      </trkpt>
      <trkpt lat="44.01279" lon="5.21991">
        <ele>290</ele>
        <time>2016-11-01T07:31:47+01:00</time>
      </trkpt>
      <trkpt lat="44.01255" lon="5.21906">
        <ele>287</ele>
        <time>2016-11-01T07:31:52+01:00</time>
      </trkpt>
      <trkpt lat="44.01266" lon="5.21916">
        <ele>286</ele>
        <time>2016-11-01T07:31:57+01:00</time>
      </trkpt>
      <trkpt lat="44.01286" lon="5.21978">
        <ele>289</ele>
        <time>2016-11-01T07:32:02+01:00</time>
      </trkpt>
      <trkpt lat="44.01335" lon="5.21979">
        <ele>284</ele>
        <time>2016-11-01T07:32:07+01:00</time>
      </trkpt>
      <trkpt lat="44.01364" lon="5.21921">
        <ele>277</ele>
        <time>2016-11-01T07:32:12+01:00</time>
      </trkpt>
      <trkpt lat="44.01399" lon="5.2186">
        <ele>271</ele>
        <time>2016-11-01T07:32:17+01:00</time>
      </trkpt>
      <trkpt lat="44.01425" lon="5.21816">
        <ele>268</ele>
        <time>2016-11-01T07:32:22+01:00</time>
      </trkpt>
      <trkpt lat="44.01446" lon="5.21808">
        <ele>270</ele>
        <time>2016-11-01T07:32:27+01:00</time>
      </trkpt>
      <trkpt lat="44.01466" lon="5.21789">
        <ele>270</ele>
        <time>2016-11-01T07:32:32+01:00</time>
      </trkpt>
      <trkpt lat="44.01485" lon="5.21774">
        <ele>269</ele>
        <time>2016-11-01T07:32:37+01:00</time>
      </trkpt>
      <trkpt lat="44.01462" lon="5.21846">
        <ele>275</ele>
        <time>2016-11-01T07:32:42+01:00</time>
      </trkpt>
      <trkpt lat="44.01451" lon="5.2191">
        <ele>281</ele>
        <time>2016-11-01T07:32:47+01:00</time>
      </trkpt>
      <trkpt lat="44.01479" lon="5.21985">
        <ele>289</ele>
        <time>2016-11-01T07:32:52+01:00</time>
      </trkpt>
      <trkpt lat="44.01531" lon="5.22058">
        <ele>295</ele>
        <time>2016-11-01T07:32:57+01:00</time>
      </trkpt>
      <trkpt lat="44.01556" lon="5.22126">
        <ele>299</ele>
        <time>2016-11-01T07:33:02+01:00</time>
      </trkpt>
      <trkpt lat="44.0158" lon="5.22189">
        <ele>298</ele>
        <time>2016-11-01T07:33:07+01:00</time>
      </trkpt>
      <trkpt lat="44.01622" lon="5.22222">
        <ele>303</ele>
        <time>2016-11-01T07:33:12+01:00</time>
      </trkpt>
      <trkpt lat="44.01672" lon="5.22245">
        <ele>309</ele>
        <time>2016-11-01T07:33:17+01:00</time>
      </trkpt>
      <trkpt lat="44.01687" lon="5.22307">
        <ele>308</ele>
        <time>2016-11-01T07:33:22+01:00</time>
      </trkpt>
      <trkpt lat="44.0175" lon="5.22312">
        <ele>324</ele>
        <time>2016-11-01T07:33:27+01:00</time>
      </trkpt>
      <trkpt lat="44.01763" lon="5.22347">
        <ele>322</ele>
        <time>2016-11-01T07:33:32+01:00</time>
      </trkpt>
      <trkpt lat="44.01847" lon="5.22349">
        <ele>334</ele>
        <time>2016-11-01T07:33:37+01:00</time>
      </trkpt>
      <trkpt lat="44.01923" lon="5.22362">
        <ele>342</ele>
        <time>2016-11-01T07:33:42+01:00</time>
      </trkpt>
      <trkpt lat="44.01969" lon="5.22319">
        <ele>349</ele>
        <time>2016-11-01T07:33:47+01:00</time>
      </trkpt>
      <trkpt lat="44.02032" lon="5.22272">
        <ele>348</ele>
        <time>2016-11-01T07:33:52+01:00</time>
      </trkpt>
      <trkpt lat="44.02088" lon="5.22231">
        <ele>341</ele>
        <time>2016-11-01T07:33:57+01:00</time>
      </trkpt>
      <trkpt lat="44.02159" lon="5.2219">
        <ele>335</ele>
        <time>2016-11-01T07:34:02+01:00</time>
      </trkpt>
      <trkpt lat="44.02216" lon="5.221">
        <ele>323</ele>
        <time>2016-11-01T07:34:07+01:00</time>
      </trkpt>
      <trkpt lat="44.0228" lon="5.22039">
        <ele>316</ele>
        <time>2016-11-01T07:34:12+01:00</time>
      </trkpt>
      <trkpt lat="44.02301" lon="5.22048">
        <ele>317</ele>
        <time>2016-11-01T07:34:17+01:00</time>
      </trkpt>
      <trkpt lat="44.02317" lon="5.22085">
        <ele>322</ele>
        <time>2016-11-01T07:34:22+01:00</time>
      </trkpt>
      <trkpt lat="44.02362" lon="5.22101">
        <ele>325</ele>
        <time>2016-11-01T07:34:27+01:00</time>
      </trkpt>
      <trkpt lat="44.02376" lon="5.2214">
        <ele>329</ele>
        <time>2016-11-01T07:34:32+01:00</time>
      </trkpt>
      <trkpt lat="44.02414" lon="5.22153">
        <ele>330</ele>
        <time>2016-11-01T07:34:37+01:00</time>
      </trkpt>
      <trkpt lat="44.02466" lon="5.2217">
        <ele>331</ele>
        <time>2016-11-01T07:34:42+01:00</time>
      </trkpt>
      <trkpt lat="44.02515" lon="5.22225">
        <ele>337</ele>
        <time>2016-11-01T07:34:47+01:00</time>
      </trkpt>
      <trkpt lat="44.02541" lon="5.22258">
        <ele>339</ele>
        <time>2016-11-01T07:34:52+01:00</time>
      </trkpt>
      <trkpt lat="44.02549" lon="5.22294">
        <ele>343</ele>
        <time>2016-11-01T07:34:57+01:00</time>
      </trkpt>
      <trkpt lat="44.02568" lon="5.22319">
        <ele>343</ele>
        <time>2016-11-01T07:35:02+01:00</time>
      </trkpt>
      <trkpt lat="44.02562" lon="5.224">
        <ele>353</ele>
        <time>2016-11-01T07:35:07+01:00</time>
      </trkpt>
      <trkpt lat="44.02573" lon="5.22492">
        <ele>363</ele>
        <time>2016-11-01T07:35:12+01:00</time>
      </trkpt>
      <trkpt lat="44.02601" lon="5.22573">
        <ele>372</ele>
        <time>2016-11-01T07:35:17+01:00</time>
      </trkpt>
      <trkpt lat="44.02653" lon="5.22627">
        <ele>379</ele>
        <time>2016-11-01T07:35:22+01:00</time>
      </trkpt>
      <trkpt lat="44.02684" lon="5.22693">
        <ele>386</ele>
        <time>2016-11-01T07:35:27+01:00</time>
      </trkpt>
      <trkpt lat="44.02741" lon="5.22716">
        <ele>384</ele>
        <time>2016-11-01T07:35:32+01:00</time>
      </trkpt>
      <trkpt lat="44.02758" lon="5.2273">
        <ele>384</ele>
        <time>2016-11-01T07:35:37+01:00</time>
      </trkpt>
      <trkpt lat="44.0271" lon="5.22751">
        <ele>390</ele>
        <time>2016-11-01T07:35:42+01:00</time>
      </trkpt>
      <trkpt lat="44.027" lon="5.22818">
        <ele>398</ele>
        <time>2016-11-01T07:35:47+01:00</time>
      </trkpt>
      <trkpt lat="44.02668" lon="5.22852">
        <ele>405</ele>
        <time>2016-11-01T07:35:52+01:00</time>
      </trkpt>
      <trkpt lat="44.02606" lon="5.2295">
        <ele>416</ele>
        <time>2016-11-01T07:35:57+01:00</time>
      </trkpt>
      <trkpt lat="44.0255" lon="5.23038">
        <ele>422</ele>
        <time>2016-11-01T07:36:02+01:00</time>
      </trkpt>
      <trkpt lat="44.02513" lon="5.23113">
        <ele>427</ele>
        <time>2016-11-01T07:36:07+01:00</time>
      </trkpt>
      <trkpt lat="44.02475" lon="5.23186">
        <ele>430</ele>
        <time>2016-11-01T07:36:12+01:00</time>
      </trkpt>
      <trkpt lat="44.02487" lon="5.23304">
        <ele>435</ele>
        <time>2016-11-01T07:36:17+01:00</time>
      </trkpt>
      <trkpt lat="44.02513" lon="5.23407">
        <ele>439</ele>
        <time>2016-11-01T07:36:22+01:00</time>
      </trkpt>
      <trkpt lat="44.02549" lon="5.23493">
        <ele>439</ele>
        <time>2016-11-01T07:36:27+01:00</time>
      </trkpt>
      <trkpt lat="44.02609" lon="5.23559">
        <ele>445</ele>
        <time>2016-11-01T07:36:32+01:00</time>
      </trkpt>
      <trkpt lat="44.02657" lon="5.23626">
        <ele>449</ele>
        <time>2016-11-01T07:36:37+01:00</time>
      </trkpt>
      <trkpt lat="44.0272" lon="5.2369">
        <ele>451</ele>
        <time>2016-11-01T07:36:42+01:00</time>
      </trkpt>
      <trkpt lat="44.02766" lon="5.23744">
        <ele>453</ele>
        <time>2016-11-01T07:36:47+01:00</time>
      </trkpt>
      <trkpt lat="44.02851" lon="5.23801">
        <ele>456</ele>
        <time>2016-11-01T07:36:52+01:00</time>
      </trkpt>
      <trkpt lat="44.02876" lon="5.23882">
        <ele>460</ele>
        <time>2016-11-01T07:36:57+01:00</time>
      </trkpt>
      <trkpt lat="44.0289" lon="5.23958">
        <ele>458</ele>
        <time>2016-11-01T07:37:02+01:00</time>
      </trkpt>
      <trkpt lat="44.0297" lon="5.24003">
        <ele>465</ele>
        <time>2016-11-01T07:37:07+01:00</time>
      </trkpt>
      <trkpt lat="44.03049" lon="5.24069">
        <ele>468</ele>
        <time>2016-11-01T07:37:12+01:00</time>
      </trkpt>
      <trkpt lat="44.03075" lon="5.24142">
        <ele>469</ele>
        <time>2016-11-01T07:37:17+01:00</time>
      </trkpt>
      <trkpt lat="44.0315" lon="5.24215">
        <ele>468</ele>
        <time>2016-11-01T07:37:22+01:00</time>
      </trkpt>
      <trkpt lat="44.03249" lon="5.24307">
        <ele>464</ele>
        <time>2016-11-01T07:37:27+01:00</time>
      </trkpt>
      <trkpt lat="44.03308" lon="5.24355">
        <ele>455</ele>
        <time>2016-11-01T07:37:32+01:00</time>
      </trkpt>
      <trkpt lat="44.03338" lon="5.24362">
        <ele>451</ele>
        <time>2016-11-01T07:37:37+01:00</time>
      </trkpt>
      <trkpt lat="44.03354" lon="5.24415">
        <ele>446</ele>
        <time>2016-11-01T07:37:42+01:00</time>
      </trkpt>
      <trkpt lat="44.03381" lon="5.24421">
        <ele>443</ele>
        <time>2016-11-01T07:37:47+01:00</time>
      </trkpt>
      <trkpt lat="44.03431" lon="5.24453">
        <ele>439</ele>
        <time>2016-11-01T07:37:52+01:00</time>
      </trkpt>
      <trkpt lat="44.03471" lon="5.24494">
        <ele>437</ele>
        <time>2016-11-01T07:37:57+01:00</time>
      </trkpt>
      <trkpt lat="44.03494" lon="5.24483">
        <ele>437</ele>
        <time>2016-11-01T07:38:02+01:00</time>
      </trkpt>
      <trkpt lat="44.03526" lon="5.24495">
        <ele>436</ele>
        <time>2016-11-01T07:38:07+01:00</time>
      </trkpt>
      <trkpt lat="44.03601" lon="5.24512">
        <ele>435</ele>
        <time>2016-11-01T07:38:12+01:00</time>
      </trkpt>
      <trkpt lat="44.03619" lon="5.24531">
        <ele>435</ele>
        <time>2016-11-01T07:38:17+01:00</time>
      </trkpt>
      <trkpt lat="44.03668" lon="5.24527">
        <ele>433</ele>
        <time>2016-11-01T07:38:22+01:00</time>
      </trkpt>
      <trkpt lat="44.03713" lon="5.24499">
        <ele>430</ele>
        <time>2016-11-01T07:38:27+01:00</time>
      </trkpt>
      <trkpt lat="44.03749" lon="5.24447">
        <ele>424</ele>
        <time>2016-11-01T07:38:32+01:00</time>
      </trkpt>
      <trkpt lat="44.03777" lon="5.24428">
        <ele>421</ele>
        <time>2016-11-01T07:38:37+01:00</time>
      </trkpt>
      <trkpt lat="44.03809" lon="5.24416">
        <ele>418</ele>
        <time>2016-11-01T07:38:42+01:00</time>
      </trkpt>
      <trkpt lat="44.03849" lon="5.24412">
        <ele>416</ele>
        <time>2016-11-01T07:38:47+01:00</time>
      </trkpt>
      <trkpt lat="44.03892" lon="5.24505">
        <ele>421</ele>
        <time>2016-11-01T07:38:52+01:00</time>
      </trkpt>
      <trkpt lat="44.03943" lon="5.24592">
        <ele>426</ele>
        <time>2016-11-01T07:38:57+01:00</time>
      </trkpt>
      <trkpt lat="44.03989" lon="5.24664">
        <ele>429</ele>
        <time>2016-11-01T07:39:02+01:00</time>
      </trkpt>
      <trkpt lat="44.04017" lon="5.24705">
        <ele>430</ele>
        <time>2016-11-01T07:39:07+01:00</time>
      </trkpt>
      <trkpt lat="44.03994" lon="5.24769">
        <ele>431</ele>
        <time>2016-11-01T07:39:12+01:00</time>
      </trkpt>
      <trkpt lat="44.03948" lon="5.24746">
        <ele>432</ele>
        <time>2016-11-01T07:39:17+01:00</time>
      </trkpt>
      <trkpt lat="44.03895" lon="5.24714">
        <ele>431</ele>
        <time>2016-11-01T07:39:22+01:00</time>
      </trkpt>
      <trkpt lat="44.0382" lon="5.24693">
        <ele>432</ele>
        <time>2016-11-01T07:39:27+01:00</time>
      </trkpt>
      <trkpt lat="44.03743" lon="5.24669">
        <ele>433</ele>
        <time>2016-11-01T07:39:32+01:00</time>
      </trkpt>
      <trkpt lat="44.03645" lon="5.24637">
        <ele>433</ele>
        <time>2016-11-01T07:39:37+01:00</time>
      </trkpt>
      <trkpt lat="44.0359" lon="5.24564">
        <ele>437</ele>
        <time>2016-11-01T07:39:42+01:00</time>
      </trkpt>
      <trkpt lat="44.03551" lon="5.24544">
        <ele>436</ele>
        <time>2016-11-01T07:39:47+01:00</time>
      </trkpt>
      <trkpt lat="44.0351" lon="5.24531">
        <ele>435</ele>
        <time>2016-11-01T07:39:52+01:00</time>
      </trkpt>
      <trkpt lat="44.03498" lon="5.24553">
        <ele>434</ele>
        <time>2016-11-01T07:39:57+01:00</time>
      </trkpt>
      <trkpt lat="44.03469" lon="5.24548">
        <ele>432</ele>
        <time>2016-11-01T07:40:02+01:00</time>
      </trkpt>
      <trkpt lat="44.03411" lon="5.24529">
        <ele>431</ele>
        <time>2016-11-01T07:40:07+01:00</time>
      </trkpt>
      <trkpt lat="44.03341" lon="5.24514">
        <ele>431</ele>
        <time>2016-11-01T07:40:12+01:00</time>
      </trkpt>
      <trkpt lat="44.03281" lon="5.24495">
        <ele>432</ele>
        <time>2016-11-01T07:40:17+01:00</time>
      </trkpt>
      <trkpt lat="44.03229" lon="5.24498">
        <ele>428</ele>
        <time>2016-11-01T07:40:22+01:00</time>
      </trkpt>
      <trkpt lat="44.0317" lon="5.24497">
        <ele>428</ele>
        <time>2016-11-01T07:40:27+01:00</time>
      </trkpt>
      <trkpt lat="44.03108" lon="5.2448">
        <ele>423</ele>
        <time>2016-11-01T07:40:32+01:00</time>
      </trkpt>
      <trkpt lat="44.03051" lon="5.24438">
        <ele>420</ele>
        <time>2016-11-01T07:40:37+01:00</time>
      </trkpt>
      <trkpt lat="44.03007" lon="5.24382">
        <ele>422</ele>
        <time>2016-11-01T07:40:42+01:00</time>
      </trkpt>
      <trkpt lat="44.02973" lon="5.2435">
        <ele>416</ele>
        <time>2016-11-01T07:40:47+01:00</time>
      </trkpt>
      <trkpt lat="44.02973" lon="5.24312">
        <ele>424</ele>
        <time>2016-11-01T07:40:52+01:00</time>
      </trkpt>
      <trkpt lat="44.02937" lon="5.24292">
        <ele>413</ele>
        <time>2016-11-01T07:40:57+01:00</time>
      </trkpt>
      <trkpt lat="44.02908" lon="5.2424">
        <ele>411</ele>
        <time>2016-11-01T07:41:02+01:00</time>
      </trkpt>
      <trkpt lat="44.02843" lon="5.24156">
        <ele>405</ele>
        <time>2016-11-01T07:41:07+01:00</time>
      </trkpt>
      <trkpt lat="44.02796" lon="5.24129">
        <ele>401</ele>
        <time>2016-11-01T07:41:12+01:00</time>
      </trkpt>
      <trkpt lat="44.0276" lon="5.24094">
        <ele>405</ele>
        <time>2016-11-01T07:41:17+01:00</time>
      </trkpt>
      <trkpt lat="44.02702" lon="5.24075">
        <ele>401</ele>
        <time>2016-11-01T07:41:22+01:00</time>
      </trkpt>
      <trkpt lat="44.02664" lon="5.24047">
        <ele>402</ele>
        <time>2016-11-01T07:41:27+01:00</time>
      </trkpt>
      <trkpt lat="44.02617" lon="5.24043">
        <ele>390</ele>
        <time>2016-11-01T07:41:32+01:00</time>
      </trkpt>
      <trkpt lat="44.0257" lon="5.23962">
        <ele>395</ele>
        <time>2016-11-01T07:41:37+01:00</time>
      </trkpt>
      <trkpt lat="44.02502" lon="5.2393">
        <ele>382</ele>
        <time>2016-11-01T07:41:42+01:00</time>
      </trkpt>
      <trkpt lat="44.02441" lon="5.23905">
        <ele>375</ele>
        <time>2016-11-01T07:41:47+01:00</time>
      </trkpt>
      <trkpt lat="44.02426" lon="5.23887">
        <ele>373</ele>
        <time>2016-11-01T07:41:52+01:00</time>
      </trkpt>
      <trkpt lat="44.02386" lon="5.23808">
        <ele>367</ele>
        <time>2016-11-01T07:41:57+01:00</time>
      </trkpt>
      <trkpt lat="44.0236" lon="5.23694">
        <ele>363</ele>
        <time>2016-11-01T07:42:02+01:00</time>
      </trkpt>
      <trkpt lat="44.0231" lon="5.23704">
        <ele>355</ele>
        <time>2016-11-01T07:42:07+01:00</time>
      </trkpt>
      <trkpt lat="44.02279" lon="5.23709">
        <ele>351</ele>
        <time>2016-11-01T07:42:12+01:00</time>
      </trkpt>
      <trkpt lat="44.02262" lon="5.23679">
        <ele>346</ele>
        <time>2016-11-01T07:42:17+01:00</time>
      </trkpt>
      <trkpt lat="44.02262" lon="5.23663">
        <ele>345</ele>
        <time>2016-11-01T07:42:22+01:00</time>
      </trkpt>
      <trkpt lat="44.02241" lon="5.2366">
        <ele>341</ele>
        <time>2016-11-01T07:42:27+01:00</time>
      </trkpt>
      <trkpt lat="44.02209" lon="5.23686">
        <ele>337</ele>
        <time>2016-11-01T07:42:32+01:00</time>
      </trkpt>
      <trkpt lat="44.02188" lon="5.23725">
        <ele>334</ele>
        <time>2016-11-01T07:42:37+01:00</time>
      </trkpt>
      <trkpt lat="44.02177" lon="5.23754">
        <ele>332</ele>
        <time>2016-11-01T07:42:42+01:00</time>
      </trkpt>
      <trkpt lat="44.02145" lon="5.23774">
        <ele>323</ele>
        <time>2016-11-01T07:42:47+01:00</time>
      </trkpt>
      <trkpt lat="44.02148" lon="5.23724">
        <ele>325</ele>
        <time>2016-11-01T07:42:52+01:00</time>
      </trkpt>
      <trkpt lat="44.02133" lon="5.23689">
        <ele>322</ele>
        <time>2016-11-01T07:42:57+01:00</time>
      </trkpt>
      <trkpt lat="44.0212" lon="5.23625">
        <ele>319</ele>
        <time>2016-11-01T07:43:02+01:00</time>
      </trkpt>
      <trkpt lat="44.02123" lon="5.23581">
        <ele>319</ele>
        <time>2016-11-01T07:43:07+01:00</time>
      </trkpt>
      <trkpt lat="44.02077" lon="5.23561">
        <ele>313</ele>
        <time>2016-11-01T07:43:12+01:00</time>
      </trkpt>
      <trkpt lat="44.02047" lon="5.23517">
        <ele>310</ele>
        <time>2016-11-01T07:43:17+01:00</time>
      </trkpt>
      <trkpt lat="44.02042" lon="5.23473">
        <ele>309</ele>
        <time>2016-11-01T07:43:22+01:00</time>
      </trkpt>
      <trkpt lat="44.02017" lon="5.23413">
        <ele>305</ele>
        <time>2016-11-01T07:43:27+01:00</time>
      </trkpt>
      <trkpt lat="44.01998" lon="5.23359">
        <ele>299</ele>
        <time>2016-11-01T07:43:32+01:00</time>
      </trkpt>
      <trkpt lat="44.01998" lon="5.23329">
        <ele>297</ele>
        <time>2016-11-01T07:43:37+01:00</time>
      </trkpt>
      <trkpt lat="44.02019" lon="5.23303">
        <ele>299</ele>
        <time>2016-11-01T07:43:42+01:00</time>
      </trkpt>
      <trkpt lat="44.02043" lon="5.23284">
        <ele>305</ele>
        <time>2016-11-01T07:43:47+01:00</time>
      </trkpt>
      <trkpt lat="44.02029" lon="5.23217">
        <ele>310</ele>
        <time>2016-11-01T07:43:52+01:00</time>
      </trkpt>
      <trkpt lat="44.01993" lon="5.23199">
        <ele>304</ele>
        <time>2016-11-01T07:43:57+01:00</time>
      </trkpt>
      <trkpt lat="44.01943" lon="5.23189">
        <ele>298</ele>
        <time>2016-11-01T07:44:02+01:00</time>
      </trkpt>
      <trkpt lat="44.01893" lon="5.23181">
        <ele>292</ele>
        <time>2016-11-01T07:44:07+01:00</time>
      </trkpt>
      <trkpt lat="44.01857" lon="5.2316">
        <ele>290</ele>
        <time>2016-11-01T07:44:12+01:00</time>
      </trkpt>
      <trkpt lat="44.01832" lon="5.23124">
        <ele>287</ele>
        <time>2016-11-01T07:44:17+01:00</time>
      </trkpt>
      <trkpt lat="44.01796" lon="5.23094">
        <ele>289</ele>
        <time>2016-11-01T07:44:22+01:00</time>
      </trkpt>
      <trkpt lat="44.01792" lon="5.23074">
        <ele>289</ele>
        <time>2016-11-01T07:44:27+01:00</time>
      </trkpt>
      <trkpt lat="44.01745" lon="5.23057">
        <ele>295</ele>
        <time>2016-11-01T07:44:32+01:00</time>
      </trkpt>
      <trkpt lat="44.01661" lon="5.22973">
        <ele>294</ele>
        <time>2016-11-01T07:44:37+01:00</time>
      </trkpt>
      <trkpt lat="44.01602" lon="5.229">
        <ele>297</ele>
        <time>2016-11-01T07:44:42+01:00</time>
      </trkpt>
      <trkpt lat="44.01548" lon="5.22837">
        <ele>298</ele>
        <time>2016-11-01T07:44:47+01:00</time>
      </trkpt>
      <trkpt lat="44.01509" lon="5.22782">
        <ele>298</ele>
        <time>2016-11-01T07:44:52+01:00</time>
      </trkpt>
      <trkpt lat="44.01455" lon="5.22712">
        <ele>301</ele>
        <time>2016-11-01T07:44:57+01:00</time>
      </trkpt>
      <trkpt lat="44.01438" lon="5.22656">
        <ele>304</ele>
        <time>2016-11-01T07:45:02+01:00</time>
      </trkpt>
      <trkpt lat="44.01421" lon="5.22597">
        <ele>307</ele>
        <time>2016-11-01T07:45:07+01:00</time>
      </trkpt>
      <trkpt lat="44.01416" lon="5.22518">
        <ele>314</ele>
        <time>2016-11-01T07:45:12+01:00</time>
      </trkpt>
      <trkpt lat="44.01411" lon="5.22444">
        <ele>318</ele>
        <time>2016-11-01T07:45:17+01:00</time>
      </trkpt>
      <trkpt lat="44.01403" lon="5.22346">
        <ele>316</ele>
        <time>2016-11-01T07:45:22+01:00</time>
      </trkpt>
      <trkpt lat="44.01392" lon="5.22344">
        <ele>315</ele>
        <time>2016-11-01T07:45:27+01:00</time>
      </trkpt>
    </trkseg>
  </trk>
</gpx>